createdAt,value
2023-05-24T00:00:25.616Z,21.88
2023-05-24T00:02:53.344Z,21.74
2023-05-24T00:05:20.630Z,21.72
2023-05-24T00:07:48.118Z,21.72
2023-05-24T00:10:15.611Z,21.73
2023-05-24T00:12:43.026Z,21.55
2023-05-24T00:15:10.602Z,21.61
2023-05-24T00:17:41.569Z,21.57
2023-05-24T00:20:13.500Z,21.64
2023-05-24T00:22:41.833Z,21.56
2023-05-24T00:25:10.595Z,21.46
2023-05-24T00:27:37.922Z,21.30
2023-05-24T00:30:06.366Z,21.15
2023-05-24T00:32:36.519Z,21.14
2023-05-24T00:35:04.414Z,21.15
2023-05-24T00:37:32.580Z,21.07
2023-05-24T00:40:00.577Z,21.08
2023-05-24T00:42:28.592Z,20.98
2023-05-24T00:44:55.877Z,21.00
2023-05-24T00:47:23.396Z,21.00
2023-05-24T00:49:51.141Z,20.98
2023-05-24T00:52:18.478Z,20.98
2023-05-24T00:54:46.342Z,21.01
2023-05-24T00:57:14.186Z,21.02
2023-05-24T00:59:41.996Z,20.98
2023-05-24T01:02:09.393Z,20.92
2023-05-24T01:04:37.915Z,20.91
2023-05-24T01:07:39.342Z,20.76
2023-05-24T01:10:21.935Z,20.67
2023-05-24T01:13:17.053Z,20.62
2023-05-24T01:16:31.831Z,20.59
2023-05-24T01:19:26.070Z,20.52
2023-05-24T01:22:09.271Z,20.57
2023-05-24T01:25:10.809Z,20.42
2023-05-24T01:27:38.837Z,20.44
2023-05-24T01:30:07.545Z,20.52
2023-05-24T01:32:34.967Z,20.57
2023-05-24T01:35:02.316Z,20.49
2023-05-24T01:37:29.580Z,20.47
2023-05-24T01:39:56.962Z,20.44
2023-05-24T01:42:54.944Z,20.55
2023-05-24T01:45:37.550Z,20.52
2023-05-24T01:48:19.159Z,20.47
2023-05-24T01:50:52.479Z,20.46
2023-05-24T01:53:20.447Z,20.39
2023-05-24T01:55:49.846Z,20.43
2023-05-24T01:58:21.043Z,20.34
2023-05-24T02:00:49.070Z,20.32
2023-05-24T02:03:17.018Z,20.30
2023-05-24T02:05:46.142Z,20.21
2023-05-24T02:08:13.534Z,20.19
2023-05-24T02:10:41.414Z,20.16
2023-05-24T02:13:09.254Z,20.18
2023-05-24T02:15:36.888Z,20.20
2023-05-24T02:18:07.996Z,20.10
2023-05-24T02:20:37.162Z,20.01
2023-05-24T02:23:04.801Z,20.03
2023-05-24T02:25:33.338Z,20.10
2023-05-24T02:28:00.780Z,20.10
2023-05-24T02:30:28.272Z,19.97
2023-05-24T02:32:56.230Z,19.91
2023-05-24T02:35:24.260Z,19.92
2023-05-24T02:37:51.662Z,19.76
2023-05-24T02:40:19.038Z,19.88
2023-05-24T02:42:47.770Z,19.88
2023-05-24T02:45:15.080Z,19.94
2023-05-24T02:47:42.360Z,19.75
2023-05-24T02:50:10.492Z,19.78
2023-05-24T02:52:37.905Z,19.65
2023-05-24T02:55:06.738Z,19.67
2023-05-24T02:57:35.151Z,19.73
2023-05-24T03:00:02.725Z,19.68
2023-05-24T03:02:34.221Z,19.74
2023-05-24T03:05:01.886Z,19.72
2023-05-24T03:07:30.456Z,19.55
2023-05-24T03:09:57.725Z,19.56
2023-05-24T03:12:25.031Z,19.53
2023-05-24T03:14:52.333Z,19.66
2023-05-24T03:17:22.614Z,19.70
2023-05-24T03:19:51.058Z,19.59
2023-05-24T03:22:37.486Z,19.70
2023-05-24T03:25:05.755Z,19.77
2023-05-24T03:27:33.125Z,19.58
2023-05-24T03:30:00.690Z,19.59
2023-05-24T03:32:30.905Z,19.52
2023-05-24T03:34:59.521Z,19.55
2023-05-24T03:37:27.898Z,19.40
2023-05-24T03:39:58.077Z,19.42
2023-05-24T03:42:34.597Z,19.45
2023-05-24T03:45:01.975Z,19.45
2023-05-24T03:47:29.456Z,19.40
2023-05-24T03:49:57.051Z,19.39
2023-05-24T03:52:24.750Z,19.43
2023-05-24T03:54:52.175Z,19.48
2023-05-24T03:57:19.465Z,19.50
2023-05-24T03:59:47.248Z,19.49
2023-05-24T04:02:14.731Z,19.65
2023-05-24T04:04:42.157Z,19.66
2023-05-24T04:07:12.009Z,19.56
2023-05-24T04:09:40.365Z,19.53
2023-05-24T04:12:07.731Z,19.52
2023-05-24T04:14:35.323Z,19.53
2023-05-24T04:17:04.560Z,19.61
2023-05-24T04:19:32.299Z,19.56
2023-05-24T04:22:00.416Z,19.63
2023-05-24T04:24:27.833Z,19.57
2023-05-24T04:26:55.194Z,19.44
2023-05-24T04:29:26.112Z,19.52
2023-05-24T04:31:55.252Z,19.49
2023-05-24T04:34:25.415Z,19.59
2023-05-24T04:36:53.190Z,19.60
2023-05-24T04:39:20.584Z,19.77
2023-05-24T04:41:51.046Z,19.75
2023-05-24T04:44:18.496Z,19.82
2023-05-24T04:46:45.857Z,19.86
2023-05-24T04:49:13.140Z,19.91
2023-05-24T04:51:40.499Z,19.91
2023-05-24T04:54:10.983Z,19.95
2023-05-24T04:56:38.772Z,20.12
2023-05-24T04:59:07.184Z,20.22
2023-05-24T05:01:34.736Z,20.32
2023-05-24T05:04:04.703Z,20.25
2023-05-24T05:06:35.005Z,20.33
2023-05-24T05:09:02.423Z,20.52
2023-05-24T05:11:29.729Z,20.48
2023-05-24T05:13:57.063Z,20.62
2023-05-24T05:16:24.444Z,20.63
2023-05-24T05:18:54.584Z,20.73
2023-05-24T05:21:21.946Z,20.80
2023-05-24T05:23:49.364Z,20.79
2023-05-24T05:26:16.652Z,20.85
2023-05-24T05:28:44.001Z,20.85
2023-05-24T05:31:11.324Z,21.06
2023-05-24T05:33:38.632Z,21.15
2023-05-24T05:36:07.774Z,21.21
2023-05-24T05:38:35.071Z,21.10
2023-05-24T05:41:02.401Z,21.46
2023-05-24T05:43:29.794Z,21.48
2023-05-24T05:45:57.492Z,21.40
2023-05-24T05:48:25.812Z,21.41
2023-05-24T05:50:53.163Z,21.34
2023-05-24T05:53:20.519Z,21.48
2023-05-24T05:55:47.812Z,21.54
2023-05-24T05:58:16.541Z,21.56
2023-05-24T06:00:44.091Z,21.67
2023-05-24T06:03:11.663Z,21.78
2023-05-24T06:05:39.040Z,21.81
2023-05-24T06:08:06.324Z,21.82
2023-05-24T06:10:33.654Z,21.89
2023-05-24T06:13:03.134Z,21.90
2023-05-24T06:15:30.824Z,22.08
2023-05-24T06:17:58.115Z,22.32
2023-05-24T06:20:25.783Z,22.42
2023-05-24T06:22:55.423Z,22.59
2023-05-24T06:25:24.460Z,22.49
2023-05-24T06:27:51.862Z,22.46
2023-05-24T06:30:19.319Z,22.60
2023-05-24T06:32:46.776Z,22.71
2023-05-24T06:35:14.229Z,22.63
2023-05-24T06:37:41.618Z,22.69
2023-05-24T06:40:09.905Z,23.06
2023-05-24T06:42:37.964Z,23.03
2023-05-24T06:45:09.300Z,23.13
2023-05-24T06:47:37.272Z,23.57
2023-05-24T06:50:05.914Z,23.88
2023-05-24T06:52:33.327Z,24.15
2023-05-24T06:55:00.678Z,24.19
2023-05-24T06:57:27.996Z,24.17
2023-05-24T06:59:55.273Z,24.22
2023-05-24T07:02:26.703Z,24.11
2023-05-24T07:04:54.576Z,24.51
2023-05-24T07:07:21.961Z,24.10
2023-05-24T07:09:49.227Z,24.63
2023-05-24T07:12:16.657Z,24.71
2023-05-24T07:14:44.090Z,25.14
2023-05-24T07:17:11.627Z,25.33
2023-05-24T07:19:39.096Z,25.28
2023-05-24T07:22:07.429Z,25.05
2023-05-24T07:24:34.826Z,25.16
2023-05-24T07:27:02.392Z,25.29
2023-05-24T07:29:29.687Z,25.34
2023-05-24T07:31:58.244Z,25.32
2023-05-24T07:34:27.750Z,25.28
2023-05-24T07:36:55.110Z,25.43
2023-05-24T07:39:23.291Z,25.38
2023-05-24T07:41:51.268Z,25.61
2023-05-24T07:44:19.342Z,25.74
2023-05-24T07:46:46.680Z,25.81
2023-05-24T07:49:13.985Z,26.21
2023-05-24T07:51:42.212Z,25.68
2023-05-24T07:54:12.260Z,25.90
2023-05-24T07:56:41.675Z,25.78
2023-05-24T07:59:08.916Z,26.21
2023-05-24T08:01:36.816Z,26.00
2023-05-24T08:04:04.473Z,26.06
2023-05-24T08:06:35.162Z,26.44
2023-05-24T08:09:04.409Z,26.79
2023-05-24T08:11:31.700Z,25.99
2023-05-24T08:13:59.012Z,26.45
2023-05-24T08:16:26.795Z,26.57
2023-05-24T08:18:55.381Z,26.31
2023-05-24T08:21:23.506Z,26.61
2023-05-24T08:23:51.221Z,26.20
2023-05-24T08:26:20.858Z,26.50
2023-05-24T08:28:48.234Z,26.82
2023-05-24T08:31:16.372Z,26.68
2023-05-24T08:33:44.530Z,26.62
2023-05-24T08:36:12.148Z,26.88
2023-05-24T08:38:41.219Z,27.14
2023-05-24T08:41:11.568Z,26.93
2023-05-24T08:43:39.203Z,26.46
2023-05-24T08:46:08.730Z,26.27
2023-05-24T08:48:50.056Z,26.69
2023-05-24T08:51:18.260Z,26.77
2023-05-24T08:53:50.764Z,27.06
2023-05-24T08:56:19.082Z,27.11
2023-05-24T08:58:47.289Z,26.75
2023-05-24T09:01:17.299Z,26.82
2023-05-24T09:03:46.884Z,26.99
2023-05-24T09:06:17.536Z,26.91
2023-05-24T09:08:46.309Z,26.54
2023-05-24T09:11:16.318Z,26.84
2023-05-24T09:13:45.704Z,27.20
2023-05-24T09:16:13.324Z,26.84
2023-05-24T09:18:44.563Z,27.19
2023-05-24T09:21:12.456Z,27.15
2023-05-24T09:23:41.500Z,26.85
2023-05-24T09:26:12.964Z,26.41
2023-05-24T09:28:42.113Z,26.48
2023-05-24T09:31:09.500Z,26.42
2023-05-24T09:33:38.836Z,26.38
2023-05-24T09:36:07.068Z,26.38
2023-05-24T09:38:36.427Z,26.84
2023-05-24T09:41:06.543Z,26.42
2023-05-24T09:43:36.413Z,26.45
2023-05-24T09:46:05.120Z,27.01
2023-05-24T09:48:35.914Z,27.09
2023-05-24T09:51:05.842Z,26.67
2023-05-24T09:53:37.920Z,26.49
2023-05-24T09:56:07.041Z,26.59
2023-05-24T09:58:36.271Z,26.93
2023-05-24T10:01:10.815Z,26.82
2023-05-24T10:03:38.629Z,26.59
2023-05-24T10:06:11.400Z,26.94
2023-05-24T10:08:39.185Z,26.67
2023-05-24T10:11:06.560Z,26.99
2023-05-24T10:13:37.136Z,26.74
2023-05-24T10:16:05.946Z,27.08
2023-05-24T10:18:33.371Z,26.90
2023-05-24T10:21:02.913Z,27.17
2023-05-24T10:23:32.653Z,26.94
2023-05-24T10:26:06.617Z,27.30
2023-05-24T10:28:38.669Z,27.62
2023-05-24T10:31:22.915Z,27.87
2023-05-24T10:33:52.003Z,27.29
2023-05-24T10:36:19.693Z,27.19
2023-05-24T10:38:47.285Z,27.22
2023-05-24T10:41:17.261Z,27.38
2023-05-24T10:44:08.408Z,27.23
2023-05-24T10:46:38.425Z,27.16
2023-05-24T10:49:07.618Z,27.15
2023-05-24T10:51:40.403Z,27.39
2023-05-24T10:54:27.497Z,27.88
2023-05-24T10:56:56.906Z,27.69
2023-05-24T10:59:29.414Z,28.53
2023-05-24T11:01:58.528Z,28.09
2023-05-24T11:04:26.580Z,28.31
2023-05-24T11:07:01.596Z,28.16
2023-05-24T11:09:29.893Z,28.83
2023-05-24T11:12:04.052Z,28.17
2023-05-24T11:14:32.362Z,27.47
2023-05-24T11:17:02.887Z,27.55
2023-05-24T11:19:36.213Z,27.64
2023-05-24T11:22:07.130Z,27.00
2023-05-24T11:24:36.007Z,27.65
2023-05-24T11:27:03.842Z,27.86
2023-05-24T11:29:31.188Z,28.55
2023-05-24T11:32:06.202Z,28.25
2023-05-24T11:34:40.098Z,28.38
2023-05-24T11:37:07.734Z,27.77
2023-05-24T11:39:38.186Z,28.02
2023-05-24T11:42:06.603Z,28.44
2023-05-24T11:44:38.154Z,28.06
2023-05-24T11:47:07.945Z,27.89
2023-05-24T11:49:36.049Z,27.74
2023-05-24T11:52:03.930Z,28.16
2023-05-24T11:54:33.487Z,28.10
2023-05-24T11:57:01.812Z,27.40
2023-05-24T11:59:30.224Z,27.93
2023-05-24T12:02:00.439Z,28.24
2023-05-24T12:04:29.258Z,28.21
2023-05-24T12:06:57.175Z,28.55
2023-05-24T12:09:25.409Z,28.47
2023-05-24T12:11:57.630Z,28.96
2023-05-24T12:14:28.553Z,28.68
2023-05-24T12:16:57.176Z,28.40
2023-05-24T12:19:35.149Z,28.28
2023-05-24T12:22:10.671Z,27.88
2023-05-24T12:24:38.447Z,27.87
2023-05-24T12:27:10.095Z,28.44
2023-05-24T12:29:40.990Z,28.20
2023-05-24T12:32:13.546Z,28.53
2023-05-24T12:34:43.082Z,28.81
2023-05-24T12:37:15.052Z,28.79
2023-05-24T12:39:44.252Z,28.20
2023-05-24T12:42:15.350Z,28.13
2023-05-24T12:44:42.812Z,27.98
2023-05-24T12:47:10.648Z,27.71
2023-05-24T12:49:38.220Z,27.57
2023-05-24T12:52:06.860Z,27.87
2023-05-24T12:54:36.556Z,28.30
2023-05-24T12:57:04.260Z,27.95
2023-05-24T12:59:31.746Z,28.13
2023-05-24T13:01:59.220Z,27.78
2023-05-24T13:04:30.527Z,28.20
2023-05-24T13:06:58.051Z,28.29
2023-05-24T13:09:26.304Z,28.33
2023-05-24T13:11:55.651Z,28.50
2023-05-24T13:14:23.112Z,28.65
2023-05-24T13:16:52.037Z,28.23
2023-05-24T13:19:22.447Z,28.10
2023-05-24T13:21:49.911Z,27.59
2023-05-24T13:24:17.549Z,27.86
2023-05-24T13:26:45.399Z,28.25
2023-05-24T13:31:44.073Z,28.26
2023-05-24T13:34:11.817Z,28.19
2023-05-24T13:36:39.489Z,28.10
2023-05-24T13:41:43.646Z,27.87
2023-05-24T13:44:12.276Z,27.66
2023-05-24T13:46:40.305Z,27.69
2023-05-24T13:49:13.722Z,27.59
2023-05-24T13:51:41.199Z,27.80
2023-05-24T13:54:08.974Z,27.71
2023-05-24T13:56:36.605Z,27.79
2023-05-24T13:59:05.218Z,27.76
2023-05-24T14:01:36.693Z,27.49
2023-05-24T14:04:05.449Z,27.76
2023-05-24T14:06:34.329Z,27.86
2023-05-24T14:09:01.859Z,27.60
2023-05-24T14:11:31.714Z,27.49
2023-05-24T14:16:30.171Z,27.78
2023-05-24T14:18:58.073Z,27.80
2023-05-24T14:23:54.237Z,27.88
2023-05-24T14:26:24.420Z,27.93
2023-05-24T14:28:54.464Z,27.81
2023-05-24T14:31:24.165Z,27.72
2023-05-24T14:33:51.680Z,27.34
2023-05-24T14:36:19.350Z,27.41
2023-05-24T14:38:46.837Z,27.54
2023-05-24T14:41:15.439Z,27.55
2023-05-24T14:43:43.050Z,27.32
2023-05-24T14:46:10.684Z,27.11
2023-05-24T14:48:41.403Z,27.09
2023-05-24T14:51:09.211Z,27.17
2023-05-24T14:53:36.635Z,27.29
2023-05-24T14:56:05.117Z,27.14
2023-05-24T14:58:32.483Z,27.10
2023-05-24T15:00:59.856Z,26.90
2023-05-24T15:03:27.474Z,27.10
2023-05-24T15:05:54.936Z,27.26
2023-05-24T15:08:22.291Z,26.99
2023-05-24T15:10:49.704Z,27.16
2023-05-24T15:13:18.675Z,27.05
2023-05-24T15:15:46.281Z,26.66
2023-05-24T15:18:13.804Z,26.62
2023-05-24T15:20:41.869Z,26.68
2023-05-24T15:23:10.786Z,26.68
2023-05-24T15:25:38.403Z,26.52
2023-05-24T15:28:08.935Z,26.32
2023-05-24T15:30:36.304Z,26.30
2023-05-24T15:33:04.113Z,26.09
2023-05-24T15:35:31.807Z,26.14
2023-05-24T15:37:59.338Z,26.28
2023-05-24T15:40:26.911Z,26.12
2023-05-24T15:42:54.406Z,25.99
2023-05-24T15:45:21.992Z,25.92
2023-05-24T15:47:49.484Z,25.87
2023-05-24T15:50:16.894Z,25.71
2023-05-24T15:52:44.274Z,25.60
2023-05-24T15:55:12.056Z,25.72
2023-05-24T15:57:39.460Z,25.88
2023-05-24T16:00:07.584Z,25.76
2023-05-24T16:02:39.747Z,25.78
2023-05-24T16:05:08.960Z,25.75
2023-05-24T16:07:36.407Z,26.01
2023-05-24T16:10:04.069Z,25.98
2023-05-24T16:12:33.046Z,25.81
2023-05-24T16:15:02.976Z,25.79
2023-05-24T16:17:32.344Z,25.65
2023-05-24T16:20:02.667Z,25.66
2023-05-24T16:22:30.315Z,25.73
2023-05-24T16:24:57.751Z,25.67
2023-05-24T16:27:25.109Z,25.46
2023-05-24T16:29:55.583Z,25.39
2023-05-24T16:32:23.593Z,25.43
2023-05-24T16:34:56.801Z,25.38
2023-05-24T16:37:26.226Z,25.37
2023-05-24T16:39:54.133Z,25.33
2023-05-24T16:42:22.913Z,25.19
2023-05-24T16:44:50.439Z,25.15
2023-05-24T16:47:17.874Z,25.21
2023-05-24T16:49:48.301Z,25.10
2023-05-24T16:52:17.769Z,24.99
2023-05-24T16:54:45.208Z,24.96
2023-05-24T16:57:12.620Z,24.82
2023-05-24T16:59:42.768Z,24.88
2023-05-24T17:02:10.191Z,24.78
2023-05-24T17:04:37.542Z,24.61
2023-05-24T17:07:06.698Z,24.56
2023-05-24T17:09:35.529Z,24.37
2023-05-24T17:12:03.788Z,24.27
2023-05-24T17:14:31.544Z,24.30
2023-05-24T17:16:58.994Z,24.10
2023-05-24T17:19:26.327Z,24.10
2023-05-24T17:21:53.860Z,24.06
2023-05-24T17:24:27.639Z,23.86
2023-05-24T17:26:56.476Z,23.89
2023-05-24T17:29:26.429Z,23.85
2023-05-24T17:31:53.871Z,23.83
2023-05-24T17:34:21.491Z,23.73
2023-05-24T17:36:50.300Z,23.64
2023-05-24T17:39:21.360Z,23.56
2023-05-24T17:41:48.707Z,23.62
2023-05-24T17:44:16.834Z,23.51
2023-05-24T17:46:44.536Z,23.47
2023-05-24T17:49:14.087Z,23.44
2023-05-24T17:51:41.487Z,23.47
2023-05-24T17:54:08.954Z,23.55
2023-05-24T17:56:36.357Z,23.59
2023-05-24T17:59:03.772Z,23.52
2023-05-24T18:01:31.678Z,23.50
2023-05-24T18:04:00.735Z,23.46
2023-05-24T18:06:28.607Z,23.43
2023-05-24T18:08:58.011Z,22.99
2023-05-24T18:11:26.289Z,22.83
2023-05-24T18:13:55.011Z,22.62
2023-05-24T18:16:22.740Z,22.52
2023-05-24T18:18:52.700Z,22.31
2023-05-24T18:21:20.131Z,22.14
2023-05-24T18:23:47.862Z,21.93
2023-05-24T18:26:15.269Z,21.73
2023-05-24T18:28:42.704Z,21.72
2023-05-24T18:31:11.204Z,21.68
2023-05-24T18:33:42.332Z,21.71
2023-05-24T18:36:10.381Z,21.73
2023-05-24T18:38:42.668Z,21.50
2023-05-24T18:41:12.017Z,21.52
2023-05-24T18:43:43.952Z,21.78
2023-05-24T18:46:15.397Z,21.91
2023-05-24T18:48:44.284Z,21.77
2023-05-24T18:51:12.617Z,21.85
2023-05-24T18:53:40.533Z,21.69
2023-05-24T18:56:09.776Z,21.87
2023-05-24T18:58:38.055Z,21.83
2023-05-24T19:01:05.719Z,21.78
2023-05-24T19:03:34.424Z,21.92
2023-05-24T19:06:06.660Z,21.84
2023-05-24T19:08:35.304Z,21.81
2023-05-24T19:11:02.721Z,21.68
2023-05-24T19:13:33.808Z,21.59
2023-05-24T19:16:02.934Z,21.72
2023-05-24T19:18:33.229Z,21.46
2023-05-24T19:21:01.718Z,21.44
2023-05-24T19:23:31.872Z,21.48
2023-05-24T19:25:59.266Z,21.46
2023-05-24T19:28:28.072Z,21.46
2023-05-24T19:30:55.702Z,21.43
2023-05-24T19:33:24.231Z,21.40
2023-05-24T19:35:53.139Z,21.41
2023-05-24T19:38:23.342Z,21.44
2023-05-24T19:40:50.794Z,21.35
2023-05-24T19:43:18.240Z,21.33
2023-05-24T19:45:48.150Z,21.36
2023-05-24T19:48:17.060Z,21.36
2023-05-24T19:50:48.981Z,21.42
2023-05-24T19:53:19.606Z,21.34
2023-05-24T19:55:51.901Z,21.41
2023-05-24T19:58:20.751Z,21.46
2023-05-24T20:00:48.948Z,21.50
2023-05-24T20:03:16.405Z,21.55
2023-05-24T20:05:45.796Z,21.46
2023-05-24T20:08:13.386Z,21.48
2023-05-24T20:10:41.559Z,21.54
2023-05-24T20:13:08.970Z,21.57
2023-05-24T20:15:38.246Z,21.62
2023-05-24T20:18:08.813Z,21.58
2023-05-24T20:20:39.299Z,21.51
2023-05-24T20:23:06.766Z,21.55
2023-05-24T20:25:35.495Z,21.60
2023-05-24T20:28:12.723Z,21.67
2023-05-24T20:30:45.756Z,21.75
2023-05-24T20:33:15.052Z,21.79
2023-05-24T20:35:44.596Z,21.78
2023-05-24T20:38:13.782Z,21.83
2023-05-24T20:40:41.772Z,21.82
2023-05-24T20:43:09.472Z,21.87
2023-05-24T20:45:38.672Z,21.92
2023-05-24T20:48:07.223Z,21.76
2023-05-24T20:50:35.368Z,21.77
2023-05-24T20:53:02.786Z,21.79
2023-05-24T20:55:31.180Z,21.95
2023-05-24T20:57:58.536Z,22.07
2023-05-24T21:00:27.480Z,22.05
2023-05-24T21:02:55.481Z,22.42
2023-05-24T21:05:23.120Z,22.36
2023-05-24T21:07:50.683Z,22.40
2023-05-24T21:10:19.992Z,22.25
2023-05-24T21:15:16.649Z,22.19
2023-05-24T21:17:47.005Z,22.25
2023-05-24T21:20:14.534Z,22.10
2023-05-24T21:22:47.908Z,22.27
2023-05-24T21:25:16.486Z,22.19
2023-05-24T21:27:44.417Z,22.05
2023-05-24T21:30:12.409Z,22.09
2023-05-24T21:32:39.975Z,22.08
2023-05-24T21:35:07.927Z,21.94
2023-05-24T21:37:35.332Z,21.95
2023-05-24T21:40:03.044Z,21.94
2023-05-24T21:42:31.321Z,21.76
2023-05-24T21:45:01.372Z,21.63
2023-05-24T21:47:29.056Z,21.68
2023-05-24T21:49:56.970Z,21.67
2023-05-24T21:52:25.880Z,21.78
2023-05-24T21:54:53.349Z,21.76
2023-05-24T21:57:20.759Z,21.54
2023-05-24T21:59:48.100Z,21.51
2023-05-24T22:02:15.720Z,21.45
2023-05-24T22:04:43.139Z,21.34
2023-05-24T22:07:10.985Z,21.32
2023-05-24T22:09:38.308Z,21.16
2023-05-24T22:12:08.560Z,21.22
2023-05-24T22:14:36.018Z,21.05
2023-05-24T22:17:03.498Z,20.91
2023-05-24T22:19:40.020Z,20.80
2023-05-24T22:22:08.772Z,20.79
2023-05-24T22:24:36.229Z,20.81
2023-05-24T22:27:03.873Z,20.94
2023-05-24T22:29:33.828Z,21.10
2023-05-24T22:32:02.388Z,21.19
2023-05-24T22:34:29.925Z,21.25
2023-05-24T22:36:57.863Z,21.21
2023-05-24T22:39:25.857Z,21.20
2023-05-24T22:41:53.573Z,21.11
2023-05-24T22:44:21.154Z,21.05
2023-05-24T22:46:53.776Z,21.02
2023-05-24T22:49:22.008Z,21.06
2023-05-24T22:51:50.564Z,20.79
2023-05-24T22:54:17.986Z,20.86
2023-05-24T22:56:46.347Z,20.76
2023-05-24T22:59:13.794Z,20.84
2023-05-24T23:01:41.169Z,20.96
2023-05-24T23:04:20.742Z,20.92
2023-05-24T23:06:53.263Z,20.95
2023-05-24T23:09:36.691Z,20.94
2023-05-24T23:12:08.131Z,20.92
2023-05-24T23:14:39.894Z,21.01
2023-05-24T23:17:15.555Z,21.07
2023-05-24T23:19:43.598Z,21.15
2023-05-24T23:22:12.077Z,21.13
2023-05-24T23:24:42.069Z,21.19
2023-05-24T23:27:10.452Z,21.25
2023-05-24T23:29:40.437Z,21.31
2023-05-24T23:32:09.245Z,21.28
2023-05-24T23:34:37.252Z,21.28
2023-05-24T23:37:05.515Z,21.23
2023-05-24T23:39:32.992Z,21.31
2023-05-24T23:42:00.305Z,21.34
2023-05-24T23:44:27.719Z,21.45
2023-05-24T23:46:56.439Z,21.49
2023-05-24T23:49:25.737Z,21.44
2023-05-24T23:51:53.129Z,21.42
2023-05-24T23:54:20.690Z,21.45
2023-05-24T23:56:50.371Z,21.39
2023-05-24T23:59:17.672Z,21.35
